sensor_id;sensor_type;location;lat;lon;timestamp;pressure;altitude;pressure_sealevel;temperature;humidity
36664;BME280;53333;51.976;20.144;2023-04-16T00:02:11;99952.38;;;11.06;66.47
36664;BME280;53333;51.976;20.144;2023-04-16T00:04:44;99955.06;;;11.06;66.35
36664;BME280;53333;51.976;20.144;2023-04-16T00:07:18;99948.75;;;11.07;66.55
36664;BME280;53333;51.976;20.144;2023-04-16T00:09:51;99955.84;;;11.08;66.45
36664;BME280;53333;51.976;20.144;2023-04-16T00:12:24;99949.72;;;11.06;66.48
36664;BME280;53333;51.976;20.144;2023-04-16T00:14:57;99958.50;;;11.08;66.42
36664;BME280;53333;51.976;20.144;2023-04-16T00:17:31;99955.84;;;11.08;66.46
36664;BME280;53333;51.976;20.144;2023-04-16T00:20:05;99953.16;;;11.08;66.58
36664;BME280;53333;51.976;20.144;2023-04-16T00:22:40;99948.84;;;11.05;66.51
36664;BME280;53333;51.976;20.144;2023-04-16T00:25:13;99949.78;;;11.04;66.68
36664;BME280;53333;51.976;20.144;2023-04-16T00:27:46;99950.66;;;11.05;66.59
36664;BME280;53333;51.976;20.144;2023-04-16T00:30:19;99953.31;;;11.05;66.68
36664;BME280;53333;51.976;20.144;2023-04-16T00:32:52;99950.56;;;11.06;66.63
36664;BME280;53333;51.976;20.144;2023-04-16T00:35:24;99950.41;;;11.09;66.65
36664;BME280;53333;51.976;20.144;2023-04-16T00:37:59;99960.06;;;11.12;66.52
36664;BME280;53333;51.976;20.144;2023-04-16T00:40:31;99952.84;;;11.14;66.50
36664;BME280;53333;51.976;20.144;2023-04-16T00:43:04;99954.53;;;11.15;66.35
36664;BME280;53333;51.976;20.144;2023-04-16T00:45:37;99950.84;;;11.18;66.32
36664;BME280;53333;51.976;20.144;2023-04-16T00:48:10;99955.25;;;11.19;66.27
36664;BME280;53333;51.976;20.144;2023-04-16T00:50:43;99952.59;;;11.19;66.19
36664;BME280;53333;51.976;20.144;2023-04-16T00:53:17;99958.88;;;11.18;66.28
36664;BME280;53333;51.976;20.144;2023-04-16T00:55:51;99959.81;;;11.17;66.40
36664;BME280;53333;51.976;20.144;2023-04-16T00:58:24;99963.34;;;11.17;66.35
36664;BME280;53333;51.976;20.144;2023-04-16T01:00:57;99965.16;;;11.17;66.30
36664;BME280;53333;51.976;20.144;2023-04-16T01:03:36;99965.06;;;11.18;66.32
36664;BME280;53333;51.976;20.144;2023-04-16T01:06:10;99966.03;;;11.17;66.37
36664;BME280;53333;51.976;20.144;2023-04-16T01:08:45;99968.22;;;11.26;65.92
36664;BME280;53333;51.976;20.144;2023-04-16T01:11:17;99968.88;;;11.14;66.01
36664;BME280;53333;51.976;20.144;2023-04-16T01:13:50;99963.69;;;11.11;66.38
36664;BME280;53333;51.976;20.144;2023-04-16T01:16:23;99971.88;;;11.08;66.39
36664;BME280;53333;51.976;20.144;2023-04-16T01:18:57;99967.75;;;11.18;65.91
36664;BME280;53333;51.976;20.144;2023-04-16T01:21:31;99973.78;;;11.06;66.19
36664;BME280;53333;51.976;20.144;2023-04-16T01:24:04;99972.19;;;11.02;66.39
36664;BME280;53333;51.976;20.144;2023-04-16T01:26:37;99973.13;;;11.01;66.53
36664;BME280;53333;51.976;20.144;2023-04-16T01:29:10;99972.34;;;10.99;66.58
36664;BME280;53333;51.976;20.144;2023-04-16T01:31:43;99976.84;;;10.98;66.80
36664;BME280;53333;51.976;20.144;2023-04-16T01:34:24;99974.25;;;10.97;67.14
36664;BME280;53333;51.976;20.144;2023-04-16T01:36:59;99982.19;;;10.98;66.82
36664;BME280;53333;51.976;20.144;2023-04-16T01:39:31;99975.03;;;10.99;66.82
36664;BME280;53333;51.976;20.144;2023-04-16T01:42:05;99975.81;;;11.01;66.81
36664;BME280;53333;51.976;20.144;2023-04-16T01:44:38;99977.63;;;11.00;66.89
36664;BME280;53333;51.976;20.144;2023-04-16T01:47:11;99967.78;;;11.01;67.00
36664;BME280;53333;51.976;20.144;2023-04-16T01:49:44;99974.94;;;11.00;66.92
36664;BME280;53333;51.976;20.144;2023-04-16T01:52:20;99978.59;;;10.99;66.98
36664;BME280;53333;51.976;20.144;2023-04-16T01:54:53;99971.50;;;10.98;67.04
36664;BME280;53333;51.976;20.144;2023-04-16T01:57:51;99976.84;;;10.98;66.93
36664;BME280;53333;51.976;20.144;2023-04-16T02:00:27;99976.00;;;10.98;67.01
36664;BME280;53333;51.976;20.144;2023-04-16T02:03:00;99975.19;;;10.96;66.98
36664;BME280;53333;51.976;20.144;2023-04-16T02:05:33;99976.31;;;10.92;67.05
36664;BME280;53333;51.976;20.144;2023-04-16T02:08:07;99980.00;;;10.89;67.18
36664;BME280;53333;51.976;20.144;2023-04-16T02:10:40;99986.28;;;10.88;67.31
36664;BME280;53333;51.976;20.144;2023-04-16T02:13:13;99981.22;;;10.83;67.24
36664;BME280;53333;51.976;20.144;2023-04-16T02:15:49;99981.44;;;10.79;67.34
36664;BME280;53333;51.976;20.144;2023-04-16T02:18:30;99988.66;;;10.77;67.43
36664;BME280;53333;51.976;20.144;2023-04-16T02:21:03;99996.66;;;10.77;67.43
36664;BME280;53333;51.976;20.144;2023-04-16T02:23:39;99992.28;;;10.76;67.28
36664;BME280;53333;51.976;20.144;2023-04-16T02:26:12;100004.59;;;10.78;67.54
36664;BME280;53333;51.976;20.144;2023-04-16T02:28:46;100002.22;;;10.89;66.96
36664;BME280;53333;51.976;20.144;2023-04-16T02:31:20;100005.56;;;10.77;67.18
36664;BME280;53333;51.976;20.144;2023-04-16T02:33:53;100011.84;;;10.76;67.23
36664;BME280;53333;51.976;20.144;2023-04-16T02:36:26;100007.44;;;10.75;67.54
36664;BME280;53333;51.976;20.144;2023-04-16T02:39:01;100006.56;;;10.75;67.57
36664;BME280;53333;51.976;20.144;2023-04-16T02:41:34;100007.44;;;10.75;67.54
36664;BME280;53333;51.976;20.144;2023-04-16T02:44:07;100011.94;;;10.75;67.77
36664;BME280;53333;51.976;20.144;2023-04-16T02:46:40;100011.84;;;10.76;67.83
36664;BME280;53333;51.976;20.144;2023-04-16T02:49:12;100015.38;;;10.77;67.73
36664;BME280;53333;51.976;20.144;2023-04-16T02:51:45;100021.59;;;10.77;67.69
36664;BME280;53333;51.976;20.144;2023-04-16T02:54:20;100018.94;;;10.77;67.74
36664;BME280;53333;51.976;20.144;2023-04-16T02:56:52;100017.97;;;10.78;67.82
36664;BME280;53333;51.976;20.144;2023-04-16T02:59:25;100019.53;;;10.82;67.69
36664;BME280;53333;51.976;20.144;2023-04-16T03:01:59;100019.53;;;10.82;67.70
36664;BME280;53333;51.976;20.144;2023-04-16T03:04:32;100024.88;;;10.82;67.75
36664;BME280;53333;51.976;20.144;2023-04-16T03:07:04;100019.53;;;10.82;67.55
36664;BME280;53333;51.976;20.144;2023-04-16T03:09:40;100027.63;;;10.81;67.76
36664;BME280;53333;51.976;20.144;2023-04-16T03:12:13;100029.47;;;10.80;67.69
36664;BME280;53333;51.976;20.144;2023-04-16T03:14:46;100032.97;;;10.81;67.71
36664;BME280;53333;51.976;20.144;2023-04-16T03:17:19;100038.41;;;10.79;67.65
36664;BME280;53333;51.976;20.144;2023-04-16T03:19:51;100034.88;;;10.79;67.71
36664;BME280;53333;51.976;20.144;2023-04-16T03:22:24;100037.72;;;10.76;67.72
36664;BME280;53333;51.976;20.144;2023-04-16T03:24:58;100035.97;;;10.75;67.84
36664;BME280;53333;51.976;20.144;2023-04-16T03:27:31;100038.72;;;10.73;67.85
36664;BME280;53333;51.976;20.144;2023-04-16T03:30:06;100039.72;;;10.70;67.84
36664;BME280;53333;51.976;20.144;2023-04-16T03:32:39;100035.34;;;10.69;67.78
36664;BME280;53333;51.976;20.144;2023-04-16T03:35:14;100040.69;;;10.69;67.86
36664;BME280;53333;51.976;20.144;2023-04-16T03:37:46;100050.41;;;10.70;67.85
36664;BME280;53333;51.976;20.144;2023-04-16T03:40:22;100050.41;;;10.70;67.92
36664;BME280;53333;51.976;20.144;2023-04-16T03:42:56;100053.97;;;10.71;67.82
36664;BME280;53333;51.976;20.144;2023-04-16T03:45:29;100046.81;;;10.71;67.75
36664;BME280;53333;51.976;20.144;2023-04-16T03:48:02;100052.16;;;10.71;67.68
36664;BME280;53333;51.976;20.144;2023-04-16T03:50:35;100058.44;;;10.70;67.59
36664;BME280;53333;51.976;20.144;2023-04-16T03:53:10;100061.09;;;10.70;67.72
36664;BME280;53333;51.976;20.144;2023-04-16T03:55:47;100059.38;;;10.69;67.58
36664;BME280;53333;51.976;20.144;2023-04-16T03:58:21;100058.50;;;10.69;67.38
36664;BME280;53333;51.976;20.144;2023-04-16T04:00:55;100058.59;;;10.67;67.55
36664;BME280;53333;51.976;20.144;2023-04-16T04:03:28;100060.25;;;10.70;67.49
36664;BME280;53333;51.976;20.144;2023-04-16T04:06:05;100066.63;;;10.67;67.62
36664;BME280;53333;51.976;20.144;2023-04-16T04:08:38;100076.34;;;10.68;67.45
36664;BME280;53333;51.976;20.144;2023-04-16T04:11:14;100078.31;;;10.65;67.53
36664;BME280;53333;51.976;20.144;2023-04-16T04:13:47;100079.25;;;10.64;67.51
36664;BME280;53333;51.976;20.144;2023-04-16T04:16:20;100081.06;;;10.63;67.19
36664;BME280;53333;51.976;20.144;2023-04-16T04:18:53;100075.88;;;10.60;67.54
36664;BME280;53333;51.976;20.144;2023-04-16T04:21:28;100090.09;;;10.61;67.60
36664;BME280;53333;51.976;20.144;2023-04-16T04:24:02;100075.88;;;10.60;67.48
36664;BME280;53333;51.976;20.144;2023-04-16T04:26:38;100081.22;;;10.60;67.49
36664;BME280;53333;51.976;20.144;2023-04-16T04:29:11;100085.69;;;10.60;67.46
36664;BME280;53333;51.976;20.144;2023-04-16T04:31:44;100083.88;;;10.60;67.35
36664;BME280;53333;51.976;20.144;2023-04-16T04:34:17;100092.75;;;10.61;67.38
36664;BME280;53333;51.976;20.144;2023-04-16T04:36:50;100093.56;;;10.63;67.33
36664;BME280;53333;51.976;20.144;2023-04-16T04:39:24;100091.66;;;10.65;67.40
36664;BME280;53333;51.976;20.144;2023-04-16T04:41:58;100094.97;;;10.70;67.30
36664;BME280;53333;51.976;20.144;2023-04-16T04:44:33;100096.47;;;10.76;67.05
36664;BME280;53333;51.976;20.144;2023-04-16T04:47:06;100102.38;;;10.82;66.78
36664;BME280;53333;51.976;20.144;2023-04-16T04:49:39;100103.94;;;10.86;66.58
36664;BME280;53333;51.976;20.144;2023-04-16T04:52:12;100100.41;;;10.86;66.34
36664;BME280;53333;51.976;20.144;2023-04-16T04:54:46;100103.94;;;10.86;66.02
36664;BME280;53333;51.976;20.144;2023-04-16T04:57:20;100112.75;;;10.88;65.71
36664;BME280;53333;51.976;20.144;2023-04-16T04:59:56;100103.78;;;10.89;65.45
36664;BME280;53333;51.976;20.144;2023-04-16T05:02:31;100120.63;;;10.92;65.59
36664;BME280;53333;51.976;20.144;2023-04-16T05:05:05;100117.06;;;10.91;65.10
36664;BME280;53333;51.976;20.144;2023-04-16T05:07:38;100116.28;;;10.89;65.20
36664;BME280;53333;51.976;20.144;2023-04-16T05:10:10;100126.91;;;10.90;65.35
36664;BME280;53333;51.976;20.144;2023-04-16T05:12:46;100116.19;;;10.90;65.10
36664;BME280;53333;51.976;20.144;2023-04-16T05:15:19;100126.03;;;10.90;64.99
36664;BME280;53333;51.976;20.144;2023-04-16T05:17:52;100120.69;;;10.90;65.07
36664;BME280;53333;51.976;20.144;2023-04-16T05:20:26;100117.22;;;10.88;64.94
36664;BME280;53333;51.976;20.144;2023-04-16T05:22:59;100119.72;;;10.91;64.81
36664;BME280;53333;51.976;20.144;2023-04-16T05:25:32;100123.22;;;10.93;64.88
36664;BME280;53333;51.976;20.144;2023-04-16T05:28:06;100127.59;;;10.94;64.67
36664;BME280;53333;51.976;20.144;2023-04-16T05:30:39;100125.72;;;10.96;64.40
36664;BME280;53333;51.976;20.144;2023-04-16T05:33:12;100124.53;;;11.02;64.17
36664;BME280;53333;51.976;20.144;2023-04-16T05:35:45;100119.72;;;11.08;63.80
36664;BME280;53333;51.976;20.144;2023-04-16T05:38:18;100121.16;;;11.16;63.52
36664;BME280;53333;51.976;20.144;2023-04-16T05:40:51;100130.56;;;11.23;63.44
36664;BME280;53333;51.976;20.144;2023-04-16T05:43:25;100131.16;;;11.30;63.27
36664;BME280;53333;51.976;20.144;2023-04-16T05:45:58;100131.75;;;11.35;63.04
36664;BME280;53333;51.976;20.144;2023-04-16T05:48:31;100140.41;;;11.40;62.73
36664;BME280;53333;51.976;20.144;2023-04-16T05:51:04;100138.34;;;11.45;62.49
36664;BME280;53333;51.976;20.144;2023-04-16T05:53:37;100147.94;;;11.49;62.35
36664;BME280;53333;51.976;20.144;2023-04-16T05:56:09;100147.16;;;11.47;62.31
36664;BME280;53333;51.976;20.144;2023-04-16T05:59:09;100145.97;;;11.53;62.33
36664;BME280;53333;51.976;20.144;2023-04-16T06:01:50;100157.53;;;11.53;62.26
36664;BME280;53333;51.976;20.144;2023-04-16T06:04:26;100161.16;;;11.52;62.11
36664;BME280;53333;51.976;20.144;2023-04-16T06:07:03;100160.03;;;11.56;62.15
36664;BME280;53333;51.976;20.144;2023-04-16T06:09:36;100171.28;;;11.63;62.16
36664;BME280;53333;51.976;20.144;2023-04-16T06:12:11;100164.75;;;11.69;62.04
36664;BME280;53333;51.976;20.144;2023-04-16T06:14:54;100173.56;;;11.71;61.97
36664;BME280;53333;51.976;20.144;2023-04-16T06:17:27;100174.59;;;11.68;61.83
36664;BME280;53333;51.976;20.144;2023-04-16T06:20:00;100175.38;;;11.70;61.76
36664;BME280;53333;51.976;20.144;2023-04-16T06:22:33;100170.09;;;11.69;61.74
36664;BME280;53333;51.976;20.144;2023-04-16T06:25:13;100167.50;;;11.67;61.76
36664;BME280;53333;51.976;20.144;2023-04-16T06:27:48;100185.22;;;11.70;61.80
36664;BME280;53333;51.976;20.144;2023-04-16T06:30:22;100182.38;;;11.73;61.83
36664;BME280;53333;51.976;20.144;2023-04-16T06:32:55;100186.69;;;11.75;61.82
36664;BME280;53333;51.976;20.144;2023-04-16T06:35:28;100185.81;;;11.75;61.82
36664;BME280;53333;51.976;20.144;2023-04-16T06:38:01;100184.78;;;11.77;61.53
36664;BME280;53333;51.976;20.144;2023-04-16T06:40:34;100198.97;;;11.79;61.38
36664;BME280;53333;51.976;20.144;2023-04-16T06:43:08;100190.31;;;11.74;61.21
36664;BME280;53333;51.976;20.144;2023-04-16T06:45:42;100194.88;;;11.72;61.40
36664;BME280;53333;51.976;20.144;2023-04-16T06:48:15;100196.69;;;11.72;61.29
36664;BME280;53333;51.976;20.144;2023-04-16T06:50:48;100194.03;;;11.72;61.29
36664;BME280;53333;51.976;20.144;2023-04-16T06:53:21;100194.03;;;11.72;61.28
36664;BME280;53333;51.976;20.144;2023-04-16T06:55:54;100201.44;;;11.67;61.35
36664;BME280;53333;51.976;20.144;2023-04-16T06:58:27;100202.44;;;11.64;61.24
36664;BME280;53333;51.976;20.144;2023-04-16T07:01:01;100206.31;;;11.58;61.29
36664;BME280;53333;51.976;20.144;2023-04-16T07:03:35;100210.16;;;11.53;61.54
36664;BME280;53333;51.976;20.144;2023-04-16T07:06:08;100208.50;;;11.50;61.62
36664;BME280;53333;51.976;20.144;2023-04-16T07:08:41;100208.19;;;11.56;61.47
36664;BME280;53333;51.976;20.144;2023-04-16T07:11:14;100213.22;;;11.62;61.25
36664;BME280;53333;51.976;20.144;2023-04-16T07:13:47;100202.28;;;11.67;61.25
36664;BME280;53333;51.976;20.144;2023-04-16T07:16:23;100208.16;;;11.74;61.20
36664;BME280;53333;51.976;20.144;2023-04-16T07:18:57;100214.78;;;11.84;60.79
36664;BME280;53333;51.976;20.144;2023-04-16T07:21:30;100209.09;;;11.90;60.75
36664;BME280;53333;51.976;20.144;2023-04-16T07:24:03;100208.69;;;11.98;60.77
36664;BME280;53333;51.976;20.144;2023-04-16T07:26:36;100220.13;;;12.02;60.59
36664;BME280;53333;51.976;20.144;2023-04-16T07:29:09;100224.44;;;12.04;60.46
36664;BME280;53333;51.976;20.144;2023-04-16T07:31:44;100223.34;;;12.08;60.34
36664;BME280;53333;51.976;20.144;2023-04-16T07:34:17;100224.81;;;12.14;60.35
36664;BME280;53333;51.976;20.144;2023-04-16T07:36:49;100227.31;;;12.17;60.42
36664;BME280;53333;51.976;20.144;2023-04-16T07:39:22;100234.16;;;12.23;60.14
36664;BME280;53333;51.976;20.144;2023-04-16T07:41:55;100232.44;;;12.22;60.07
36664;BME280;53333;51.976;20.144;2023-04-16T07:44:28;100239.59;;;12.21;60.41
36664;BME280;53333;51.976;20.144;2023-04-16T07:47:02;100238.84;;;12.19;60.16
36664;BME280;53333;51.976;20.144;2023-04-16T07:49:37;100242.38;;;12.20;60.23
36664;BME280;53333;51.976;20.144;2023-04-16T07:52:10;100250.31;;;12.21;60.19
36664;BME280;53333;51.976;20.144;2023-04-16T07:54:43;100261.88;;;12.22;60.20
36664;BME280;53333;51.976;20.144;2023-04-16T07:57:16;100261.03;;;12.21;60.16
36664;BME280;53333;51.976;20.144;2023-04-16T07:59:49;100257.56;;;12.19;60.05
36664;BME280;53333;51.976;20.144;2023-04-16T08:02:32;100260.41;;;12.16;60.26
36664;BME280;53333;51.976;20.144;2023-04-16T08:05:08;100257.56;;;12.19;60.15
36664;BME280;53333;51.976;20.144;2023-04-16T08:07:51;100263.19;;;12.14;60.30
36664;BME280;53333;51.976;20.144;2023-04-16T08:10:27;100262.53;;;12.09;60.48
36664;BME280;53333;51.976;20.144;2023-04-16T08:13:03;100259.00;;;12.09;60.36
36664;BME280;53333;51.976;20.144;2023-04-16T08:15:36;100270.03;;;12.03;60.48
36664;BME280;53333;51.976;20.144;2023-04-16T08:18:17;100274.78;;;11.97;60.57
36664;BME280;53333;51.976;20.144;2023-04-16T08:20:52;100277.88;;;11.88;60.56
36664;BME280;53333;51.976;20.144;2023-04-16T08:23:28;100273.50;;;11.87;60.87
36664;BME280;53333;51.976;20.144;2023-04-16T08:26:06;100284.00;;;11.92;61.07
36664;BME280;53333;51.976;20.144;2023-04-16T08:28:45;100286.34;;;11.98;60.92
36664;BME280;53333;51.976;20.144;2023-04-16T08:31:27;100292.41;;;12.02;60.71
36664;BME280;53333;51.976;20.144;2023-04-16T08:34:06;100282.81;;;11.97;60.69
36664;BME280;53333;51.976;20.144;2023-04-16T08:36:42;100284.69;;;11.95;60.94
36664;BME280;53333;51.976;20.144;2023-04-16T08:39:16;100288.94;;;11.99;60.95
36664;BME280;53333;51.976;20.144;2023-04-16T08:41:53;100287.84;;;12.04;60.77
36664;BME280;53333;51.976;20.144;2023-04-16T08:44:29;100288.59;;;12.06;60.62
36664;BME280;53333;51.976;20.144;2023-04-16T08:47:08;100299.25;;;12.07;60.62
36664;BME280;53333;51.976;20.144;2023-04-16T08:49:47;100290.19;;;12.10;60.70
36664;BME280;53333;51.976;20.144;2023-04-16T08:52:31;100293.47;;;12.15;60.31
36664;BME280;53333;51.976;20.144;2023-04-16T08:55:26;100304.72;;;12.22;60.45
36664;BME280;53333;51.976;20.144;2023-04-16T08:58:07;100303.47;;;12.29;60.25
36664;BME280;53333;51.976;20.144;2023-04-16T09:00:42;100304.78;;;12.38;60.01
36664;BME280;53333;51.976;20.144;2023-04-16T09:03:16;100301.75;;;12.44;60.03
36664;BME280;53333;51.976;20.144;2023-04-16T09:05:54;100307.56;;;12.52;60.11
36664;BME280;53333;51.976;20.144;2023-04-16T09:08:30;100312.50;;;12.60;59.68
36664;BME280;53333;51.976;20.144;2023-04-16T09:11:16;100308.72;;;12.64;59.48
36664;BME280;53333;51.976;20.144;2023-04-16T09:13:51;100320.81;;;12.71;59.29
36664;BME280;53333;51.976;20.144;2023-04-16T09:16:28;100317.19;;;12.72;59.02
36664;BME280;53333;51.976;20.144;2023-04-16T09:19:05;100318.13;;;12.71;58.99
36664;BME280;53333;51.976;20.144;2023-04-16T09:21:40;100316.06;;;12.76;58.71
36664;BME280;53333;51.976;20.144;2023-04-16T09:24:17;100312.78;;;12.87;58.56
36664;BME280;53333;51.976;20.144;2023-04-16T09:26:51;100323.53;;;13.03;58.28
36664;BME280;53333;51.976;20.144;2023-04-16T09:29:33;100325.25;;;13.20;58.39
36664;BME280;53333;51.976;20.144;2023-04-16T09:32:07;100323.63;;;13.33;57.87
36664;BME280;53333;51.976;20.144;2023-04-16T09:35:05;100324.84;;;13.43;57.62
36664;BME280;53333;51.976;20.144;2023-04-16T09:37:39;100323.78;;;13.46;57.47
36664;BME280;53333;51.976;20.144;2023-04-16T09:40:23;100328.69;;;13.54;57.42
36664;BME280;53333;51.976;20.144;2023-04-16T09:43:10;100330.25;;;13.58;56.99
36664;BME280;53333;51.976;20.144;2023-04-16T09:45:48;100330.09;;;13.61;56.92
36664;BME280;53333;51.976;20.144;2023-04-16T09:48:28;100333.53;;;13.63;56.78
36664;BME280;53333;51.976;20.144;2023-04-16T09:51:07;100332.94;;;13.58;56.80
36664;BME280;53333;51.976;20.144;2023-04-16T09:53:45;100340.13;;;13.57;56.61
36664;BME280;53333;51.976;20.144;2023-04-16T09:56:27;100341.75;;;13.60;56.74
36664;BME280;53333;51.976;20.144;2023-04-16T09:59:01;100345.88;;;13.66;56.38
36664;BME280;53333;51.976;20.144;2023-04-16T10:01:42;100347.53;;;13.68;56.14
36664;BME280;53333;51.976;20.144;2023-04-16T10:04:17;100347.38;;;13.71;56.24
36664;BME280;53333;51.976;20.144;2023-04-16T10:07:03;100340.56;;;13.80;55.98
36664;BME280;53333;51.976;20.144;2023-04-16T10:09:40;100350.28;;;13.83;55.63
36664;BME280;53333;51.976;20.144;2023-04-16T10:12:20;100359.81;;;13.88;55.50
36664;BME280;53333;51.976;20.144;2023-04-16T10:14:53;100359.63;;;13.91;55.21
36664;BME280;53333;51.976;20.144;2023-04-16T10:17:28;100354.03;;;13.94;55.31
36664;BME280;53333;51.976;20.144;2023-04-16T10:20:02;100361.41;;;13.91;55.06
36664;BME280;53333;51.976;20.144;2023-04-16T10:22:41;100359.88;;;13.87;55.22
36664;BME280;53333;51.976;20.144;2023-04-16T10:25:18;100356.31;;;13.86;55.13
36664;BME280;53333;51.976;20.144;2023-04-16T10:27:52;100358.81;;;13.89;55.09
36664;BME280;53333;51.976;20.144;2023-04-16T10:30:26;100366.53;;;13.95;55.26
36664;BME280;53333;51.976;20.144;2023-04-16T10:33:02;100368.00;;;14.01;54.81
36664;BME280;53333;51.976;20.144;2023-04-16T10:35:38;100357.81;;;14.06;54.55
36664;BME280;53333;51.976;20.144;2023-04-16T10:38:21;100358.91;;;14.18;54.31
36664;BME280;53333;51.976;20.144;2023-04-16T10:41:01;100363.63;;;14.29;54.14
36664;BME280;53333;51.976;20.144;2023-04-16T10:43:38;100361.13;;;14.40;53.86
36664;BME280;53333;51.976;20.144;2023-04-16T10:46:29;100370.56;;;14.47;53.33
36664;BME280;53333;51.976;20.144;2023-04-16T10:49:12;100367.97;;;14.46;53.39
36664;BME280;53333;51.976;20.144;2023-04-16T10:51:53;100368.91;;;14.45;53.30
36664;BME280;53333;51.976;20.144;2023-04-16T10:54:27;100371.69;;;14.43;53.02
36664;BME280;53333;51.976;20.144;2023-04-16T10:57:05;100373.44;;;14.44;53.04
36664;BME280;53333;51.976;20.144;2023-04-16T10:59:41;100374.56;;;14.40;52.87
36664;BME280;53333;51.976;20.144;2023-04-16T11:02:15;100373.72;;;14.40;52.90
36664;BME280;53333;51.976;20.144;2023-04-16T11:04:50;100378.03;;;14.42;53.07
36664;BME280;53333;51.976;20.144;2023-04-16T11:07:32;100378.91;;;14.43;53.21
36664;BME280;53333;51.976;20.144;2023-04-16T11:10:06;100387.81;;;14.43;53.02
36664;BME280;53333;51.976;20.144;2023-04-16T11:12:41;100385.13;;;14.43;53.22
36664;BME280;53333;51.976;20.144;2023-04-16T11:15:16;100394.56;;;14.50;53.09
36664;BME280;53333;51.976;20.144;2023-04-16T11:17:50;100389.00;;;14.53;52.84
36664;BME280;53333;51.976;20.144;2023-04-16T11:20:25;100393.22;;;14.58;52.52
36664;BME280;53333;51.976;20.144;2023-04-16T11:22:58;100389.03;;;14.68;52.22
36664;BME280;53333;51.976;20.144;2023-04-16T11:25:31;100391.81;;;14.95;51.88
36664;BME280;53333;51.976;20.144;2023-04-16T11:28:06;100379.28;;;15.23;51.39
36664;BME280;53333;51.976;20.144;2023-04-16T11:30:39;100383.47;;;15.41;50.94
36664;BME280;53333;51.976;20.144;2023-04-16T11:33:12;100384.47;;;15.53;50.79
36664;BME280;53333;51.976;20.144;2023-04-16T11:35:55;100387.53;;;15.61;50.37
36664;BME280;53333;51.976;20.144;2023-04-16T11:38:33;100380.44;;;15.60;50.26
36664;BME280;53333;51.976;20.144;2023-04-16T11:41:07;100389.31;;;15.48;50.08
36664;BME280;53333;51.976;20.144;2023-04-16T11:43:41;100387.22;;;15.39;49.84
36664;BME280;53333;51.976;20.144;2023-04-16T11:46:16;100390.50;;;15.30;50.10
36664;BME280;53333;51.976;20.144;2023-04-16T11:48:58;100398.22;;;15.21;50.60
36664;BME280;53333;51.976;20.144;2023-04-16T11:51:31;100391.63;;;15.13;50.72
36664;BME280;53333;51.976;20.144;2023-04-16T11:54:17;100400.94;;;15.07;50.58
36664;BME280;53333;51.976;20.144;2023-04-16T11:56:51;100402.38;;;14.98;50.75
36664;BME280;53333;51.976;20.144;2023-04-16T11:59:26;100401.31;;;15.01;50.91
36664;BME280;53333;51.976;20.144;2023-04-16T12:01:58;100401.22;;;14.88;50.72
36664;BME280;53333;51.976;20.144;2023-04-16T12:04:32;100401.41;;;14.85;50.47
36664;BME280;53333;51.976;20.144;2023-04-16T12:07:05;100399.69;;;14.98;50.68
36664;BME280;53333;51.976;20.144;2023-04-16T12:09:40;100394.50;;;14.95;50.30
36664;BME280;53333;51.976;20.144;2023-04-16T12:12:27;100394.78;;;15.05;50.42
36664;BME280;53333;51.976;20.144;2023-04-16T12:15:05;100382.94;;;15.07;50.21
36664;BME280;53333;51.976;20.144;2023-04-16T12:17:38;100394.00;;;15.17;50.10
36664;BME280;53333;51.976;20.144;2023-04-16T12:20:12;100379.94;;;15.26;50.05
36664;BME280;53333;51.976;20.144;2023-04-16T12:22:46;100381.47;;;15.31;49.84
36664;BME280;53333;51.976;20.144;2023-04-16T12:25:23;100376.75;;;15.34;49.75
36664;BME280;53333;51.976;20.144;2023-04-16T12:27:56;100382.69;;;15.39;49.99
36664;BME280;53333;51.976;20.144;2023-04-16T12:30:31;100379.69;;;15.44;49.85
36664;BME280;53333;51.976;20.144;2023-04-16T12:33:14;100381.78;;;15.53;49.68
36664;BME280;53333;51.976;20.144;2023-04-16T12:35:48;100378.69;;;15.59;49.60
36664;BME280;53333;51.976;20.144;2023-04-16T12:38:21;100382.03;;;15.63;49.42
36664;BME280;53333;51.976;20.144;2023-04-16T12:40:56;100381.75;;;15.68;49.11
36664;BME280;53333;51.976;20.144;2023-04-16T12:43:29;100375.19;;;15.72;49.08
36664;BME280;53333;51.976;20.144;2023-04-16T12:46:03;100382.19;;;15.74;49.32
36664;BME280;53333;51.976;20.144;2023-04-16T12:48:36;100378.53;;;15.75;49.04
36664;BME280;53333;51.976;20.144;2023-04-16T12:51:08;100389.25;;;15.77;48.85
36664;BME280;53333;51.976;20.144;2023-04-16T12:53:42;100383.75;;;15.78;48.64
36664;BME280;53333;51.976;20.144;2023-04-16T12:56:14;100387.84;;;15.84;48.37
36664;BME280;53333;51.976;20.144;2023-04-16T12:58:48;100383.03;;;15.89;48.82
36664;BME280;53333;51.976;20.144;2023-04-16T13:01:23;100381.63;;;15.96;48.02
36664;BME280;53333;51.976;20.144;2023-04-16T13:03:56;100385.88;;;16.01;47.93
36664;BME280;53333;51.976;20.144;2023-04-16T13:06:30;100389.84;;;16.08;47.87
36664;BME280;53333;51.976;20.144;2023-04-16T13:09:04;100382.56;;;16.23;47.47
36664;BME280;53333;51.976;20.144;2023-04-16T13:11:37;100381.38;;;16.40;47.09
36664;BME280;53333;51.976;20.144;2023-04-16T13:14:10;100378.47;;;16.56;46.79
36664;BME280;53333;51.976;20.144;2023-04-16T13:16:44;100380.00;;;16.73;46.42
36664;BME280;53333;51.976;20.144;2023-04-16T13:19:17;100386.03;;;16.89;46.18
36664;BME280;53333;51.976;20.144;2023-04-16T13:21:50;100377.94;;;17.02;45.91
36664;BME280;53333;51.976;20.144;2023-04-16T13:24:23;100377.03;;;17.14;45.45